Bruchsal Airport


Codes: EDTC/
Name: Bruchsal Airport
City: Bruchsal
Country: Germany
Elevation: 364 ft.

Photos at Bruchsal Airport


   Photos courtesy of SpottingLog. You can add your own sightings and photos by signing up for a free trial today.



No photos found.

Weather at Bruchsal Airport


Time (UTC)DescriptionTempratureWindCloud coverageVisibilityPressureHumidity
16-Jun-2024 03:00Broken Clouds14°C4 mph, 73%10000m1012hPa73%
16-Jun-2024 06:00Overcast Clouds15°C7 mph, SW85%10000m1012hPa72%
16-Jun-2024 09:00Overcast Clouds19°C9 mph, SW100%10000m1011hPa53%
16-Jun-2024 12:00Overcast Clouds21°C11 mph, SW93%10000m1011hPa48%
16-Jun-2024 15:00Broken Clouds22°C11 mph, W79%10000m1010hPa49%
16-Jun-2024 18:00Light Rain14°C7 mph, SW90%10000m1012hPa95%
16-Jun-2024 21:00Light Rain14°C4 mph, S100%10000m1013hPa95%
17-Jun-2024 00:00Overcast Clouds14°C2 mph, SE100%10000m1014hPa93%
17-Jun-2024 03:00Overcast Clouds14°C2 mph, SE100%10000m1014hPa94%
17-Jun-2024 06:00Overcast Clouds17°C4 mph, SW100%10000m1015hPa88%
17-Jun-2024 09:00Light Rain20°C7 mph, SW100%10000m1015hPa73%
17-Jun-2024 12:00Overcast Clouds20°C7 mph, SW100%10000m1015hPa72%
17-Jun-2024 15:00Light Rain17°C4 mph, SW100%10000m1016hPa91%
17-Jun-2024 18:00Overcast Clouds19°C4 mph, SW100%10000m1016hPa82%
17-Jun-2024 21:00Broken Clouds15°C2 mph, SE75%10000m1017hPa94%
18-Jun-2024 00:00Overcast Clouds15°C4 mph, E88%10000m1016hPa93%
18-Jun-2024 03:00Overcast Clouds14°C2 mph, E100%10000m1016hPa94%
18-Jun-2024 06:00Light Rain17°C2 mph, E98%10000m1016hPa84%
18-Jun-2024 09:00Broken Clouds23°C2 mph, E51%10000m1016hPa63%
18-Jun-2024 12:00Broken Clouds27°C2 mph, W75%10000m1015hPa50%
18-Jun-2024 15:00Overcast Clouds28°C2 mph, SW100%10000m1014hPa49%
18-Jun-2024 18:00Overcast Clouds25°C2 mph, S100%10000m1013hPa66%
18-Jun-2024 21:00Moderate Rain19°C7 mph, NW100%10000m1016hPa95%
19-Jun-2024 00:00Light Rain18°C2 mph, W95%10000m1017hPa97%
19-Jun-2024 03:00Overcast Clouds17°C4 mph, N100%10000m1018hPa98%
19-Jun-2024 06:00Overcast Clouds18°C2 mph, N91%10000m1020hPa90%
19-Jun-2024 09:00Broken Clouds23°C4 mph, NE71%10000m1020hPa65%
19-Jun-2024 12:00Broken Clouds26°C7 mph, NE65%10000m1020hPa52%
19-Jun-2024 15:00Few Clouds27°C7 mph, E20%10000m1019hPa51%
19-Jun-2024 18:00Clear Sky24°C4 mph, E8%10000m1020hPa66%
19-Jun-2024 21:00Clear Sky19°C7 mph, E2%10000m1020hPa81%
20-Jun-2024 00:00Clear Sky18°C9 mph, E4%10000m1019hPa79%
20-Jun-2024 03:00Broken Clouds17°C9 mph, E58%10000m1017hPa78%
20-Jun-2024 06:00Scattered Clouds20°C9 mph, E30%10000m1016hPa74%
20-Jun-2024 09:00Few Clouds26°C4 mph, E20%10000m1015hPa61%
20-Jun-2024 12:00Broken Clouds31°C2 mph, SE58%10000m1013hPa49%
20-Jun-2024 15:00Overcast Clouds32°C7 mph, SE95%10000m1011hPa53%
20-Jun-2024 18:00Overcast Clouds28°C7 mph, SE98%10000m1008hPa70%
20-Jun-2024 21:00Light Rain22°C7 mph, SE100%10000m1008hPa92%
21-Jun-2024 00:00Light Rain20°C7 mph, SW100%10000m1010hPa96%